Аэропорт: Астана. Астана

ICAO: UACC

METAR:
2021-10-23 02:00:00
UACC 230200Z 22011MPS 9999 BKN016 03/01 Q1019 R22/2///60 NOSIG RMK QFE733/0978
METAR:
2021-10-23 01:03:00
TAF AMD UACC 230103Z 2301/2324 22012MPS 9999 SCT011 BKN030 TX09/2309Z TN03/2301Z TEMPO 2301/2306 22012G17MPS 5000 -SHRA BKN006 BKN011CB TEMPO 2306/2314 23012G17MPS BECMG 2314/2316 23009MPS